Time,TemperatureF,DewpointF,PressureIn,WindDirection,WindDirectionDegrees,WindSpeedMPH,WindSpeedGustMPH,Humidity,HourlyPrecipIn,Conditions,Clouds,dailyrainin,SoftwareType,DateUTC
2013-08-19 00:00:00,64.9,55.7,30.03,South,180,1.3,7.0,72,0.00,,SKC,0.00,VWS V14.01,2013-08-19 05:00:00,
2013-08-19 00:20:00,65.3,56.0,30.06,ENE,68,0.0,5.9,72,0.00,,SKC,0.00,VWS V14.01,2013-08-19 05:20:00,
2013-08-19 00:40:00,65.7,56.8,30.06,SSE,158,2.6,8.2,73,0.00,,SKC,0.00,VWS V14.01,2013-08-19 05:40:00,
2013-08-19 01:00:00,65.7,56.8,30.03,SSE,158,4.9,8.6,73,0.00,,SKC,0.00,VWS V14.01,2013-08-19 06:00:00,
2013-08-19 01:19:00,65.7,56.8,30.03,ESE,112,3.1,10.2,73,0.00,,SKC,0.00,VWS V14.01,2013-08-19 06:19:00,
2013-08-19 01:20:00,65.7,56.8,30.03,ESE,112,3.1,10.2,73,0.00,,SKC,0.00,VWS V14.01,2013-08-19 06:20:00,
2013-08-19 01:40:00,65.5,56.6,30.03,SSE,158,4.9,7.4,73,0.00,,SKC,0.00,VWS V14.01,2013-08-19 06:40:00,
2013-08-19 02:00:00,65.1,56.6,30.03,South,180,1.5,7.4,74,0.00,,SKC,0.00,VWS V14.01,2013-08-19 07:00:00,
2013-08-19 02:20:00,64.6,56.8,30.03,SSE,158,1.5,7.4,76,0.00,,SKC,0.00,VWS V14.01,2013-08-19 07:20:00,
2013-08-19 02:40:00,64.9,57.6,30.00,SSE,158,1.8,12.9,77,0.00,,SKC,0.00,VWS V14.01,2013-08-19 07:40:00,
2013-08-19 03:00:00,65.5,57.7,30.00,SSE,158,0.0,9.8,76,0.00,,SKC,0.00,VWS V14.01,2013-08-19 08:00:00,
2013-08-19 03:20:00,65.7,58.3,30.00,SSE,158,1.0,5.9,77,0.00,,SKC,0.00,VWS V14.01,2013-08-19 08:20:00,
2013-08-19 03:40:00,65.8,57.7,30.00,SSE,158,1.5,8.6,75,0.00,,SKC,0.00,VWS V14.01,2013-08-19 08:40:00,
2013-08-19 04:00:00,66.0,57.9,30.00,SSE,158,2.8,9.4,75,0.00,,SKC,0.00,VWS V14.01,2013-08-19 09:00:00,
2013-08-19 04:20:00,66.0,57.9,30.00,ESE,112,2.6,7.4,75,0.00,,SKC,0.00,VWS V14.01,2013-08-19 09:20:00,
2013-08-19 04:40:00,66.0,57.9,30.00,SSE,158,1.0,8.2,75,0.00,,SKC,0.00,VWS V14.01,2013-08-19 09:40:00,
2013-08-19 05:00:00,65.8,57.7,30.00,WSW,248,2.3,12.1,75,0.00,,SKC,0.00,VWS V14.01,2013-08-19 10:00:00,
2013-08-19 05:20:00,65.7,57.5,30.00,SSE,158,0.0,6.3,75,0.00,,SKC,0.00,VWS V14.01,2013-08-19 10:20:00,
2013-08-19 05:40:00,65.8,58.1,30.00,ESE,112,1.5,5.9,76,0.00,,SKC,0.00,VWS V14.01,2013-08-19 10:40:00,
2013-08-19 06:00:00,65.7,58.3,30.00,SE,135,0.0,6.3,77,0.00,,SKC,0.00,VWS V14.01,2013-08-19 11:00:00,
2013-08-19 06:20:00,65.3,57.9,29.97,SSE,158,0.0,8.6,77,0.00,,SKC,0.00,VWS V14.01,2013-08-19 11:20:00,
2013-08-19 06:40:00,64.9,57.9,29.97,SSE,158,0.0,9.4,78,0.00,,SKC,0.00,VWS V14.01,2013-08-19 11:40:00,
2013-08-19 07:00:00,64.9,58.3,29.97,SSE,158,0.0,8.6,79,0.00,,SKC,0.00,VWS V14.01,2013-08-19 12:00:00,
2013-08-19 07:20:00,65.1,58.8,29.97,SE,135,0.0,7.4,80,0.00,,SKC,0.00,VWS V14.01,2013-08-19 12:20:00,
2013-08-19 07:40:00,65.5,59.5,30.00,SSE,158,2.3,5.1,81,0.00,,SKC,0.00,VWS V14.01,2013-08-19 12:40:00,
2013-08-19 08:00:00,65.3,59.3,30.00,South,180,1.5,6.7,81,0.00,,SKC,0.00,VWS V14.01,2013-08-19 13:00:00,
2013-08-19 08:20:00,65.3,59.7,30.00,South,180,2.3,6.7,82,0.00,,SKC,0.00,VWS V14.01,2013-08-19 13:20:00,
2013-08-19 08:40:00,65.3,59.7,30.00,South,180,4.6,11.0,82,0.00,,SKC,0.00,VWS V14.01,2013-08-19 13:40:00,
2013-08-19 09:00:00,66.2,60.5,30.00,WSW,248,3.3,7.0,82,0.00,,SKC,0.00,VWS V14.01,2013-08-19 14:00:00,
2013-08-19 09:20:00,67.3,61.3,30.00,West,270,1.3,7.4,81,0.00,,SKC,0.00,VWS V14.01,2013-08-19 14:20:00,
2013-08-19 09:40:00,68.9,61.8,30.00,South,180,2.8,8.6,78,0.00,,SKC,0.00,VWS V14.01,2013-08-19 14:40:00,
2013-08-19 10:00:00,70.0,62.1,30.00,SSW,202,0.0,11.4,76,0.00,,SKC,0.00,VWS V14.01,2013-08-19 15:00:00,
2013-08-19 10:20:00,69.6,61.7,30.03,West,270,3.1,10.2,76,0.00,,SKC,0.00,VWS V14.01,2013-08-19 15:20:00,
2013-08-19 10:40:00,70.5,63.0,30.00,South,180,7.5,11.4,77,0.00,,SKC,0.00,VWS V14.01,2013-08-19 15:40:00,
2013-08-19 11:00:00,73.9,64.8,30.03,WNW,292,3.6,11.4,73,0.00,,SKC,0.00,VWS V14.01,2013-08-19 16:00:00,
2013-08-19 11:20:00,74.8,64.0,30.00,SSW,202,6.9,10.6,69,0.00,,SKC,0.00,VWS V14.01,2013-08-19 16:20:00,
2013-08-19 11:40:00,77.4,65.6,30.00,WSW,248,2.6,10.6,67,0.00,,SKC,0.00,VWS V14.01,2013-08-19 16:40:00,
2013-08-19 12:00:00,77.5,64.9,30.00,South,180,3.9,13.7,65,0.00,,SKC,0.00,VWS V14.01,2013-08-19 17:00:00,
2013-08-19 12:20:00,80.4,68.5,30.00,SE,135,2.3,13.7,67,0.00,,SKC,0.00,VWS V14.01,2013-08-19 17:20:00,
2013-08-19 12:40:00,81.1,67.4,30.00,West,270,2.8,13.7,63,0.00,,SKC,0.00,VWS V14.01,2013-08-19 17:40:00,
2013-08-19 13:00:00,81.3,65.6,30.00,SW,225,3.9,17.6,59,0.00,,SKC,0.00,VWS V14.01,2013-08-19 18:00:00,
2013-08-19 13:20:00,81.9,67.6,30.00,SSW,202,4.6,14.9,62,0.00,,SKC,0.00,VWS V14.01,2013-08-19 18:20:00,
2013-08-19 13:40:00,82.4,66.7,30.00,SW,225,2.8,20.8,59,0.00,,SKC,0.00,VWS V14.01,2013-08-19 18:40:00,
2013-08-19 14:00:00,83.7,67.3,30.03,SSW,202,2.3,13.7,58,0.00,,SKC,0.00,VWS V14.01,2013-08-19 19:00:00,
2013-08-19 14:20:00,84.4,68.0,30.03,SSW,202,1.3,12.5,58,0.00,,SKC,0.00,VWS V14.01,2013-08-19 19:20:00,
2013-08-19 14:40:00,84.4,66.5,30.03,WSW,248,6.7,14.9,55,0.00,,SKC,0.00,VWS V14.01,2013-08-19 19:40:00,
2013-08-19 15:00:00,84.0,65.6,30.03,SSE,158,3.9,21.1,54,0.00,,SKC,0.00,VWS V14.01,2013-08-19 20:00:00,
2013-08-19 15:20:00,84.4,65.4,30.03,NNE,22,4.4,12.5,53,0.00,,SKC,0.00,VWS V14.01,2013-08-19 20:20:00,
2013-08-19 15:40:00,84.4,66.5,30.03,WNW,292,3.3,14.1,55,0.00,,SKC,0.00,VWS V14.01,2013-08-19 20:40:00,
2013-08-19 16:00:00,83.8,65.4,30.03,WNW,292,6.2,14.1,54,0.00,,SKC,0.00,VWS V14.01,2013-08-19 21:00:00,
2013-08-19 16:20:00,83.3,65.5,30.03,SSE,158,1.0,12.9,55,0.00,,SKC,0.00,VWS V14.01,2013-08-19 21:20:00,
2013-08-19 16:40:00,82.8,65.0,30.03,South,180,4.6,15.3,55,0.00,,SKC,0.00,VWS V14.01,2013-08-19 21:40:00,
2013-08-19 17:20:00,81.1,64.5,30.03,ESE,112,1.5,14.9,57,0.00,,SKC,0.00,VWS V14.01,2013-08-19 22:20:00,
2013-08-19 17:40:00,81.0,64.3,30.03,South,180,13.1,20.0,57,0.00,,SKC,0.00,VWS V14.01,2013-08-19 22:40:00,
2013-08-19 18:00:00,80.1,64.0,30.03,SSE,158,1.5,20.0,58,0.00,,SKC,0.00,VWS V14.01,2013-08-19 23:00:00,
2013-08-19 18:20:00,79.5,64.4,30.03,SSE,158,2.8,11.4,60,0.00,,SKC,0.00,VWS V14.01,2013-08-19 23:20:00,
2013-08-19 18:40:00,78.8,64.2,30.03,WSW,248,2.6,11.4,61,0.00,,SKC,0.00,VWS V14.01,2013-08-19 23:40:00,
2013-08-19 19:00:00,78.1,64.5,30.03,SSE,158,2.3,8.6,63,0.00,,SKC,0.00,VWS V14.01,2013-08-20 00:00:00,
2013-08-19 19:20:00,77.2,64.1,30.00,SSE,158,1.5,11.4,64,0.00,,SKC,0.00,VWS V14.01,2013-08-20 00:20:00,
2013-08-19 19:40:00,76.3,64.5,30.00,SSE,158,1.8,5.9,67,0.00,,SKC,0.00,VWS V14.01,2013-08-20 00:40:00,
2013-08-19 20:00:00,75.2,63.9,30.00,SSE,158,1.5,8.2,68,0.00,,SKC,0.00,VWS V14.01,2013-08-20 01:00:00,
2013-08-19 20:20:00,74.5,64.1,30.03,SSE,158,3.1,7.0,70,0.00,,SKC,0.00,VWS V14.01,2013-08-20 01:20:00,
2013-08-19 20:40:00,73.8,64.2,30.00,SE,135,0.0,5.1,72,0.00,,SKC,0.00,VWS V14.01,2013-08-20 01:40:00,
2013-08-19 21:00:00,73.2,64.4,30.00,SSE,158,1.5,5.5,74,0.00,,SKC,0.00,VWS V14.01,2013-08-20 02:00:00,
2013-08-19 21:20:00,72.5,64.1,30.03,SSE,158,1.5,6.3,75,0.00,,SKC,0.00,VWS V14.01,2013-08-20 02:20:00,
2013-08-19 21:40:00,72.3,64.7,30.00,South,180,3.3,7.0,77,0.00,,SKC,0.00,VWS V14.01,2013-08-20 02:40:00,
2013-08-19 22:00:00,72.1,64.9,30.00,SSE,158,1.8,9.4,78,0.00,,SKC,0.00,VWS V14.01,2013-08-20 03:00:00,
2013-08-19 22:20:00,71.6,64.8,30.00,WSW,248,3.6,9.4,79,0.00,,SKC,0.00,VWS V14.01,2013-08-20 03:20:00,
2013-08-19 22:40:00,71.4,64.9,30.00,SSE,158,3.3,9.8,80,0.00,,SKC,0.00,VWS V14.01,2013-08-20 03:40:00,
2013-08-19 23:00:00,71.4,65.3,30.00,South,180,1.3,9.4,81,0.00,,SKC,0.00,VWS V14.01,2013-08-20 04:00:00,
2013-08-19 23:20:00,71.2,65.1,30.00,ESE,112,3.3,9.8,81,0.00,,SKC,0.00,VWS V14.01,2013-08-20 04:20:00,
2013-08-19 23:40:00,70.7,64.9,30.00,South,180,1.3,10.6,82,0.00,,SKC,0.00,VWS V14.01,2013-08-20 04:40:00,